sensor_id;sensor_type;location;lat;lon;timestamp;temperature;humidity
6256;DHT22;3161;48.794;9.784;2023-07-28T00:01:47;18.10;99.90
6256;DHT22;3161;48.794;9.784;2023-07-28T00:04:15;18.00;99.90
6256;DHT22;3161;48.794;9.784;2023-07-28T00:06:42;18.00;99.90
6256;DHT22;3161;48.794;9.784;2023-07-28T00:09:10;18.00;99.90
6256;DHT22;3161;48.794;9.784;2023-07-28T00:11:37;18.00;99.90
6256;DHT22;3161;48.794;9.784;2023-07-28T00:14:05;18.00;99.90
6256;DHT22;3161;48.794;9.784;2023-07-28T00:16:32;17.90;99.90
6256;DHT22;3161;48.794;9.784;2023-07-28T00:19:00;17.90;99.90
6256;DHT22;3161;48.794;9.784;2023-07-28T00:21:28;17.90;99.90
6256;DHT22;3161;48.794;9.784;2023-07-28T00:23:55;17.90;99.90
6256;DHT22;3161;48.794;9.784;2023-07-28T00:26:23;17.80;99.90
6256;DHT22;3161;48.794;9.784;2023-07-28T00:28:50;17.80;99.90
6256;DHT22;3161;48.794;9.784;2023-07-28T00:31:18;17.80;99.90
6256;DHT22;3161;48.794;9.784;2023-07-28T00:33:45;17.80;99.90
6256;DHT22;3161;48.794;9.784;2023-07-28T00:36:13;17.80;99.90
6256;DHT22;3161;48.794;9.784;2023-07-28T00:38:40;17.80;99.90
6256;DHT22;3161;48.794;9.784;2023-07-28T00:41:08;17.80;99.90
6256;DHT22;3161;48.794;9.784;2023-07-28T00:43:35;17.80;99.90
6256;DHT22;3161;48.794;9.784;2023-07-28T00:46:03;17.80;99.90
6256;DHT22;3161;48.794;9.784;2023-07-28T00:48:31;17.80;99.90
6256;DHT22;3161;48.794;9.784;2023-07-28T00:50:59;17.80;99.90
6256;DHT22;3161;48.794;9.784;2023-07-28T00:53:27;17.70;99.90
6256;DHT22;3161;48.794;9.784;2023-07-28T00:55:55;17.70;99.90
6256;DHT22;3161;48.794;9.784;2023-07-28T00:58:23;17.70;99.90
6256;DHT22;3161;48.794;9.784;2023-07-28T01:00:51;17.70;99.90
6256;DHT22;3161;48.794;9.784;2023-07-28T01:03:19;17.70;99.90
6256;DHT22;3161;48.794;9.784;2023-07-28T01:06:15;17.60;99.90
6256;DHT22;3161;48.794;9.784;2023-07-28T01:08:46;17.60;99.90
6256;DHT22;3161;48.794;9.784;2023-07-28T01:11:14;17.60;99.90
6256;DHT22;3161;48.794;9.784;2023-07-28T01:13:42;17.60;99.90
6256;DHT22;3161;48.794;9.784;2023-07-28T01:16:10;17.50;99.90
6256;DHT22;3161;48.794;9.784;2023-07-28T01:18:38;17.50;99.90
6256;DHT22;3161;48.794;9.784;2023-07-28T01:21:08;17.50;99.90
6256;DHT22;3161;48.794;9.784;2023-07-28T01:23:59;17.40;99.90
6256;DHT22;3161;48.794;9.784;2023-07-28T01:26:30;17.40;99.90
6256;DHT22;3161;48.794;9.784;2023-07-28T01:28:57;17.30;99.90
6256;DHT22;3161;48.794;9.784;2023-07-28T01:31:26;17.30;99.90
6256;DHT22;3161;48.794;9.784;2023-07-28T01:33:54;17.30;99.90
6256;DHT22;3161;48.794;9.784;2023-07-28T01:36:21;17.30;99.90
6256;DHT22;3161;48.794;9.784;2023-07-28T01:38:49;17.30;99.90
6256;DHT22;3161;48.794;9.784;2023-07-28T01:41:16;17.20;99.90
6256;DHT22;3161;48.794;9.784;2023-07-28T01:43:44;17.20;99.90
6256;DHT22;3161;48.794;9.784;2023-07-28T01:46:11;17.20;99.90
6256;DHT22;3161;48.794;9.784;2023-07-28T01:48:39;17.20;99.90
6256;DHT22;3161;48.794;9.784;2023-07-28T01:51:06;17.10;99.90
6256;DHT22;3161;48.794;9.784;2023-07-28T01:53:34;17.10;99.90
6256;DHT22;3161;48.794;9.784;2023-07-28T01:56:01;17.10;99.90
6256;DHT22;3161;48.794;9.784;2023-07-28T01:58:29;17.10;99.90
6256;DHT22;3161;48.794;9.784;2023-07-28T02:00:56;17.00;99.90
6256;DHT22;3161;48.794;9.784;2023-07-28T02:03:24;17.00;99.90
6256;DHT22;3161;48.794;9.784;2023-07-28T02:05:51;16.90;99.90
6256;DHT22;3161;48.794;9.784;2023-07-28T02:08:19;16.90;99.90
6256;DHT22;3161;48.794;9.784;2023-07-28T02:10:47;16.90;99.90
6256;DHT22;3161;48.794;9.784;2023-07-28T02:13:14;16.90;99.90
6256;DHT22;3161;48.794;9.784;2023-07-28T02:15:42;16.80;99.90
6256;DHT22;3161;48.794;9.784;2023-07-28T02:18:09;16.80;99.90
6256;DHT22;3161;48.794;9.784;2023-07-28T02:20:37;16.80;99.90
6256;DHT22;3161;48.794;9.784;2023-07-28T02:23:05;16.70;99.90
6256;DHT22;3161;48.794;9.784;2023-07-28T02:25:33;16.70;99.90
6256;DHT22;3161;48.794;9.784;2023-07-28T02:28:00;16.60;99.90
6256;DHT22;3161;48.794;9.784;2023-07-28T02:30:28;16.60;99.90
6256;DHT22;3161;48.794;9.784;2023-07-28T02:32:55;16.60;99.90
6256;DHT22;3161;48.794;9.784;2023-07-28T02:35:23;16.60;99.90
6256;DHT22;3161;48.794;9.784;2023-07-28T02:37:50;16.50;99.90
6256;DHT22;3161;48.794;9.784;2023-07-28T02:40:18;16.50;99.90
6256;DHT22;3161;48.794;9.784;2023-07-28T02:42:45;16.40;99.90
6256;DHT22;3161;48.794;9.784;2023-07-28T02:45:13;16.40;99.90
6256;DHT22;3161;48.794;9.784;2023-07-28T02:47:40;16.40;99.90
6256;DHT22;3161;48.794;9.784;2023-07-28T02:50:08;16.40;99.90
6256;DHT22;3161;48.794;9.784;2023-07-28T02:52:36;16.30;99.90
6256;DHT22;3161;48.794;9.784;2023-07-28T02:55:04;16.30;99.90
6256;DHT22;3161;48.794;9.784;2023-07-28T02:57:32;16.30;99.90
6256;DHT22;3161;48.794;9.784;2023-07-28T02:59:59;16.30;99.90
6256;DHT22;3161;48.794;9.784;2023-07-28T03:02:27;16.30;99.90
6256;DHT22;3161;48.794;9.784;2023-07-28T03:04:54;16.30;99.90
6256;DHT22;3161;48.794;9.784;2023-07-28T03:07:22;16.30;99.90
6256;DHT22;3161;48.794;9.784;2023-07-28T03:09:49;16.30;99.90
6256;DHT22;3161;48.794;9.784;2023-07-28T03:12:17;16.20;99.90
6256;DHT22;3161;48.794;9.784;2023-07-28T03:14:44;16.20;99.90
6256;DHT22;3161;48.794;9.784;2023-07-28T03:17:12;16.20;99.90
6256;DHT22;3161;48.794;9.784;2023-07-28T03:19:39;16.20;99.90
6256;DHT22;3161;48.794;9.784;2023-07-28T03:22:07;16.20;99.90
6256;DHT22;3161;48.794;9.784;2023-07-28T03:24:34;16.20;99.90
6256;DHT22;3161;48.794;9.784;2023-07-28T03:27:21;16.20;99.90
6256;DHT22;3161;48.794;9.784;2023-07-28T03:32:43;16.10;99.90
6256;DHT22;3161;48.794;9.784;2023-07-28T03:35:11;16.10;99.90
6256;DHT22;3161;48.794;9.784;2023-07-28T03:37:38;16.10;99.90
6256;DHT22;3161;48.794;9.784;2023-07-28T03:40:07;16.20;99.90
6256;DHT22;3161;48.794;9.784;2023-07-28T03:42:35;16.20;99.90
6256;DHT22;3161;48.794;9.784;2023-07-28T03:45:02;16.20;99.90
6256;DHT22;3161;48.794;9.784;2023-07-28T03:47:30;16.20;99.90
6256;DHT22;3161;48.794;9.784;2023-07-28T03:49:58;16.20;99.90
6256;DHT22;3161;48.794;9.784;2023-07-28T03:52:25;16.20;99.90
6256;DHT22;3161;48.794;9.784;2023-07-28T03:54:52;16.20;99.90
6256;DHT22;3161;48.794;9.784;2023-07-28T03:57:20;16.20;99.90
6256;DHT22;3161;48.794;9.784;2023-07-28T03:59:47;16.20;99.90
6256;DHT22;3161;48.794;9.784;2023-07-28T04:02:15;16.20;99.90
6256;DHT22;3161;48.794;9.784;2023-07-28T04:04:42;16.20;99.90
6256;DHT22;3161;48.794;9.784;2023-07-28T04:07:10;16.20;99.90
6256;DHT22;3161;48.794;9.784;2023-07-28T04:09:38;16.20;99.90
6256;DHT22;3161;48.794;9.784;2023-07-28T04:12:06;16.20;99.90
6256;DHT22;3161;48.794;9.784;2023-07-28T04:14:33;16.30;99.90
6256;DHT22;3161;48.794;9.784;2023-07-28T04:17:01;16.30;99.90
6256;DHT22;3161;48.794;9.784;2023-07-28T04:19:28;16.30;99.90
6256;DHT22;3161;48.794;9.784;2023-07-28T04:22:00;16.40;99.90
6256;DHT22;3161;48.794;9.784;2023-07-28T04:24:27;16.40;99.90
6256;DHT22;3161;48.794;9.784;2023-07-28T04:26:55;16.40;99.90
6256;DHT22;3161;48.794;9.784;2023-07-28T04:29:22;16.40;99.90
6256;DHT22;3161;48.794;9.784;2023-07-28T04:31:50;16.50;99.90
6256;DHT22;3161;48.794;9.784;2023-07-28T04:34:17;16.50;99.90
6256;DHT22;3161;48.794;9.784;2023-07-28T04:36:45;16.50;99.90
6256;DHT22;3161;48.794;9.784;2023-07-28T04:39:12;16.50;99.90
6256;DHT22;3161;48.794;9.784;2023-07-28T04:41:40;16.60;99.90
6256;DHT22;3161;48.794;9.784;2023-07-28T04:44:07;16.60;99.90
6256;DHT22;3161;48.794;9.784;2023-07-28T04:46:35;16.60;99.90
6256;DHT22;3161;48.794;9.784;2023-07-28T04:49:02;16.60;99.90
6256;DHT22;3161;48.794;9.784;2023-07-28T04:51:30;16.60;99.90
6256;DHT22;3161;48.794;9.784;2023-07-28T04:53:57;16.70;99.90
6256;DHT22;3161;48.794;9.784;2023-07-28T04:56:25;16.70;99.90
6256;DHT22;3161;48.794;9.784;2023-07-28T04:58:52;16.70;99.90
6256;DHT22;3161;48.794;9.784;2023-07-28T05:01:20;16.70;99.90
6256;DHT22;3161;48.794;9.784;2023-07-28T05:03:47;16.80;99.90
6256;DHT22;3161;48.794;9.784;2023-07-28T05:06:15;16.90;99.90
6256;DHT22;3161;48.794;9.784;2023-07-28T05:08:43;16.90;99.90
6256;DHT22;3161;48.794;9.784;2023-07-28T05:11:10;16.90;99.90
6256;DHT22;3161;48.794;9.784;2023-07-28T05:13:38;17.00;99.90
6256;DHT22;3161;48.794;9.784;2023-07-28T05:16:05;17.00;99.90
6256;DHT22;3161;48.794;9.784;2023-07-28T05:18:33;17.00;99.90
6256;DHT22;3161;48.794;9.784;2023-07-28T05:21:00;17.10;99.90
6256;DHT22;3161;48.794;9.784;2023-07-28T05:23:28;17.00;99.90
6256;DHT22;3161;48.794;9.784;2023-07-28T05:25:55;17.10;99.90
6256;DHT22;3161;48.794;9.784;2023-07-28T05:28:23;17.10;99.90
6256;DHT22;3161;48.794;9.784;2023-07-28T05:30:50;17.20;99.90
6256;DHT22;3161;48.794;9.784;2023-07-28T05:33:18;17.20;99.90
6256;DHT22;3161;48.794;9.784;2023-07-28T05:35:45;17.20;99.90
6256;DHT22;3161;48.794;9.784;2023-07-28T05:38:13;17.20;99.90
6256;DHT22;3161;48.794;9.784;2023-07-28T05:40:41;17.20;99.90
6256;DHT22;3161;48.794;9.784;2023-07-28T05:43:08;17.30;99.90
6256;DHT22;3161;48.794;9.784;2023-07-28T05:45:35;17.30;99.90
6256;DHT22;3161;48.794;9.784;2023-07-28T05:48:03;17.30;99.90
6256;DHT22;3161;48.794;9.784;2023-07-28T05:50:31;17.30;99.90
6256;DHT22;3161;48.794;9.784;2023-07-28T05:52:58;17.40;99.90
6256;DHT22;3161;48.794;9.784;2023-07-28T05:55:26;17.40;99.90
6256;DHT22;3161;48.794;9.784;2023-07-28T05:57:53;17.40;99.90
6256;DHT22;3161;48.794;9.784;2023-07-28T06:00:21;17.40;99.90
6256;DHT22;3161;48.794;9.784;2023-07-28T06:02:48;17.40;99.90
6256;DHT22;3161;48.794;9.784;2023-07-28T06:05:16;17.40;99.90
6256;DHT22;3161;48.794;9.784;2023-07-28T06:07:43;17.50;99.90
6256;DHT22;3161;48.794;9.784;2023-07-28T06:10:11;17.50;99.90
6256;DHT22;3161;48.794;9.784;2023-07-28T06:12:38;17.50;99.90
6256;DHT22;3161;48.794;9.784;2023-07-28T06:15:07;17.50;99.90
6256;DHT22;3161;48.794;9.784;2023-07-28T06:17:35;17.50;99.90
6256;DHT22;3161;48.794;9.784;2023-07-28T06:20:02;17.50;99.90
6256;DHT22;3161;48.794;9.784;2023-07-28T06:22:30;17.50;99.90
6256;DHT22;3161;48.794;9.784;2023-07-28T06:24:57;17.60;99.90
6256;DHT22;3161;48.794;9.784;2023-07-28T06:27:25;17.60;99.90
6256;DHT22;3161;48.794;9.784;2023-07-28T06:29:52;17.60;99.90
6256;DHT22;3161;48.794;9.784;2023-07-28T06:32:20;17.60;99.90
6256;DHT22;3161;48.794;9.784;2023-07-28T06:34:50;17.70;99.90
6256;DHT22;3161;48.794;9.784;2023-07-28T06:37:18;17.70;99.90
6256;DHT22;3161;48.794;9.784;2023-07-28T06:39:45;17.70;99.90
6256;DHT22;3161;48.794;9.784;2023-07-28T06:42:13;17.80;99.90
6256;DHT22;3161;48.794;9.784;2023-07-28T06:44:42;17.80;99.90
6256;DHT22;3161;48.794;9.784;2023-07-28T06:47:10;17.90;99.90
6256;DHT22;3161;48.794;9.784;2023-07-28T06:49:38;17.90;99.90
6256;DHT22;3161;48.794;9.784;2023-07-28T06:52:05;18.00;99.90
6256;DHT22;3161;48.794;9.784;2023-07-28T06:54:36;18.00;99.90
6256;DHT22;3161;48.794;9.784;2023-07-28T06:57:04;18.10;99.90
6256;DHT22;3161;48.794;9.784;2023-07-28T06:59:33;18.10;99.90
6256;DHT22;3161;48.794;9.784;2023-07-28T07:02:00;18.10;99.90
6256;DHT22;3161;48.794;9.784;2023-07-28T07:04:28;18.10;99.90
6256;DHT22;3161;48.794;9.784;2023-07-28T07:06:56;18.20;99.90
6256;DHT22;3161;48.794;9.784;2023-07-28T07:09:23;18.20;99.90
6256;DHT22;3161;48.794;9.784;2023-07-28T07:11:51;18.20;99.90
6256;DHT22;3161;48.794;9.784;2023-07-28T07:14:18;18.30;99.90
6256;DHT22;3161;48.794;9.784;2023-07-28T07:16:46;18.30;99.90
6256;DHT22;3161;48.794;9.784;2023-07-28T07:19:13;18.40;99.90
6256;DHT22;3161;48.794;9.784;2023-07-28T07:21:42;18.40;99.90
6256;DHT22;3161;48.794;9.784;2023-07-28T07:24:11;18.50;99.90
6256;DHT22;3161;48.794;9.784;2023-07-28T07:26:41;18.60;99.90
6256;DHT22;3161;48.794;9.784;2023-07-28T07:29:09;18.60;99.90
6256;DHT22;3161;48.794;9.784;2023-07-28T07:31:37;18.60;99.90
6256;DHT22;3161;48.794;9.784;2023-07-28T07:34:05;18.60;99.90
6256;DHT22;3161;48.794;9.784;2023-07-28T07:36:32;18.50;99.90
6256;DHT22;3161;48.794;9.784;2023-07-28T07:39:00;18.50;99.90
6256;DHT22;3161;48.794;9.784;2023-07-28T07:41:27;18.50;99.90
6256;DHT22;3161;48.794;9.784;2023-07-28T07:43:56;18.60;99.90
6256;DHT22;3161;48.794;9.784;2023-07-28T07:46:24;18.60;99.90
6256;DHT22;3161;48.794;9.784;2023-07-28T07:48:51;18.70;99.90
6256;DHT22;3161;48.794;9.784;2023-07-28T07:51:19;18.70;99.90
6256;DHT22;3161;48.794;9.784;2023-07-28T07:53:47;17.80;99.90
6256;DHT22;3161;48.794;9.784;2023-07-28T07:56:14;18.90;99.90
6256;DHT22;3161;48.794;9.784;2023-07-28T07:58:42;19.00;99.90
6256;DHT22;3161;48.794;9.784;2023-07-28T08:01:10;19.00;99.90
6256;DHT22;3161;48.794;9.784;2023-07-28T08:03:38;19.10;99.90
6256;DHT22;3161;48.794;9.784;2023-07-28T08:06:06;19.20;99.90
6256;DHT22;3161;48.794;9.784;2023-07-28T08:08:35;19.30;99.90
6256;DHT22;3161;48.794;9.784;2023-07-28T08:11:03;19.40;99.90
6256;DHT22;3161;48.794;9.784;2023-07-28T08:13:31;19.50;99.90
6256;DHT22;3161;48.794;9.784;2023-07-28T08:15:58;19.70;99.90
6256;DHT22;3161;48.794;9.784;2023-07-28T08:18:26;19.80;99.90
6256;DHT22;3161;48.794;9.784;2023-07-28T08:20:53;20.00;99.90
6256;DHT22;3161;48.794;9.784;2023-07-28T08:23:21;20.20;99.90
6256;DHT22;3161;48.794;9.784;2023-07-28T08:25:49;21.50;99.90
6256;DHT22;3161;48.794;9.784;2023-07-28T08:28:16;20.50;99.90
6256;DHT22;3161;48.794;9.784;2023-07-28T08:30:43;20.60;99.90
6256;DHT22;3161;48.794;9.784;2023-07-28T08:33:11;20.70;99.90
6256;DHT22;3161;48.794;9.784;2023-07-28T08:35:38;20.70;99.90
6256;DHT22;3161;48.794;9.784;2023-07-28T08:38:06;20.70;99.90
6256;DHT22;3161;48.794;9.784;2023-07-28T08:40:34;20.80;99.90
6256;DHT22;3161;48.794;9.784;2023-07-28T08:43:01;20.70;99.90
6256;DHT22;3161;48.794;9.784;2023-07-28T08:45:29;20.70;99.90
6256;DHT22;3161;48.794;9.784;2023-07-28T08:47:57;20.60;99.90
6256;DHT22;3161;48.794;9.784;2023-07-28T08:50:25;20.60;99.90
6256;DHT22;3161;48.794;9.784;2023-07-28T08:52:53;20.50;99.90
6256;DHT22;3161;48.794;9.784;2023-07-28T08:55:20;20.50;99.90
6256;DHT22;3161;48.794;9.784;2023-07-28T08:57:48;20.40;99.90
6256;DHT22;3161;48.794;9.784;2023-07-28T09:00:16;20.40;99.90
6256;DHT22;3161;48.794;9.784;2023-07-28T09:02:44;20.30;99.90
6256;DHT22;3161;48.794;9.784;2023-07-28T09:05:19;20.30;99.90
6256;DHT22;3161;48.794;9.784;2023-07-28T09:07:47;20.40;99.90
6256;DHT22;3161;48.794;9.784;2023-07-28T09:10:14;20.40;99.90
6256;DHT22;3161;48.794;9.784;2023-07-28T09:12:49;20.50;99.90
6256;DHT22;3161;48.794;9.784;2023-07-28T09:15:18;20.60;99.90
6256;DHT22;3161;48.794;9.784;2023-07-28T09:17:46;20.70;99.90
6256;DHT22;3161;48.794;9.784;2023-07-28T09:20:17;20.80;99.90
6256;DHT22;3161;48.794;9.784;2023-07-28T09:22:44;20.80;99.90
6256;DHT22;3161;48.794;9.784;2023-07-28T09:25:15;20.90;99.90
6256;DHT22;3161;48.794;9.784;2023-07-28T09:27:52;21.00;99.90
6256;DHT22;3161;48.794;9.784;2023-07-28T09:30:21;21.00;99.90
6256;DHT22;3161;48.794;9.784;2023-07-28T09:32:50;21.00;99.90
6256;DHT22;3161;48.794;9.784;2023-07-28T09:35:19;21.00;99.90
6256;DHT22;3161;48.794;9.784;2023-07-28T09:37:48;21.00;99.90
6256;DHT22;3161;48.794;9.784;2023-07-28T09:40:21;21.00;99.90
6256;DHT22;3161;48.794;9.784;2023-07-28T09:42:50;21.00;99.90
6256;DHT22;3161;48.794;9.784;2023-07-28T09:45:19;21.10;99.90
6256;DHT22;3161;48.794;9.784;2023-07-28T09:47:50;21.20;99.90
6256;DHT22;3161;48.794;9.784;2023-07-28T09:50:19;21.30;99.90
6256;DHT22;3161;48.794;9.784;2023-07-28T09:52:52;21.50;99.90
6256;DHT22;3161;48.794;9.784;2023-07-28T09:55:20;21.70;99.90
6256;DHT22;3161;48.794;9.784;2023-07-28T09:57:52;21.70;99.90
6256;DHT22;3161;48.794;9.784;2023-07-28T10:00:22;21.90;99.90
6256;DHT22;3161;48.794;9.784;2023-07-28T10:02:50;22.00;99.90
6256;DHT22;3161;48.794;9.784;2023-07-28T10:05:18;22.10;99.90
6256;DHT22;3161;48.794;9.784;2023-07-28T10:07:48;22.20;99.90
6256;DHT22;3161;48.794;9.784;2023-07-28T10:10:16;22.40;99.90
6256;DHT22;3161;48.794;9.784;2023-07-28T10:12:51;22.40;99.90
6256;DHT22;3161;48.794;9.784;2023-07-28T10:15:20;22.50;99.90
6256;DHT22;3161;48.794;9.784;2023-07-28T10:17:53;22.60;99.90
6256;DHT22;3161;48.794;9.784;2023-07-28T10:23:07;22.80;99.90
6256;DHT22;3161;48.794;9.784;2023-07-28T10:25:37;23.00;99.90
6256;DHT22;3161;48.794;9.784;2023-07-28T10:28:06;23.20;99.90
6256;DHT22;3161;48.794;9.784;2023-07-28T10:30:51;23.30;99.90
6256;DHT22;3161;48.794;9.784;2023-07-28T10:33:25;23.50;99.90
6256;DHT22;3161;48.794;9.784;2023-07-28T10:35:47;23.60;99.90
6256;DHT22;3161;48.794;9.784;2023-07-28T10:38:31;23.80;99.90
6256;DHT22;3161;48.794;9.784;2023-07-28T10:41:12;23.90;99.90
6256;DHT22;3161;48.794;9.784;2023-07-28T10:43:42;24.10;99.90
6256;DHT22;3161;48.794;9.784;2023-07-28T10:46:11;24.20;99.90
6256;DHT22;3161;48.794;9.784;2023-07-28T10:48:42;24.40;99.90
6256;DHT22;3161;48.794;9.784;2023-07-28T10:51:19;24.50;99.90
6256;DHT22;3161;48.794;9.784;2023-07-28T10:53:39;24.60;99.90
6256;DHT22;3161;48.794;9.784;2023-07-28T10:56:07;24.60;99.90
6256;DHT22;3161;48.794;9.784;2023-07-28T10:58:36;24.60;99.90
6256;DHT22;3161;48.794;9.784;2023-07-28T11:01:04;24.60;99.90
6256;DHT22;3161;48.794;9.784;2023-07-28T11:03:31;24.60;99.90
6256;DHT22;3161;48.794;9.784;2023-07-28T11:06:00;24.60;99.90
6256;DHT22;3161;48.794;9.784;2023-07-28T11:08:27;24.80;99.90
6256;DHT22;3161;48.794;9.784;2023-07-28T11:10:55;25.00;99.90
6256;DHT22;3161;48.794;9.784;2023-07-28T11:13:23;25.20;99.90
6256;DHT22;3161;48.794;9.784;2023-07-28T11:15:51;25.40;99.90
6256;DHT22;3161;48.794;9.784;2023-07-28T11:18:20;25.70;99.90
6256;DHT22;3161;48.794;9.784;2023-07-28T11:20:48;25.80;99.90
6256;DHT22;3161;48.794;9.784;2023-07-28T11:23:15;25.90;99.90
6256;DHT22;3161;48.794;9.784;2023-07-28T11:25:44;25.90;99.90
6256;DHT22;3161;48.794;9.784;2023-07-28T11:28:13;25.90;99.90
6256;DHT22;3161;48.794;9.784;2023-07-28T11:30:41;25.90;99.90
6256;DHT22;3161;48.794;9.784;2023-07-28T11:33:10;25.70;99.90
6256;DHT22;3161;48.794;9.784;2023-07-28T11:35:38;25.70;99.90
6256;DHT22;3161;48.794;9.784;2023-07-28T11:38:07;25.50;99.90
6256;DHT22;3161;48.794;9.784;2023-07-28T11:40:35;25.50;99.90
6256;DHT22;3161;48.794;9.784;2023-07-28T11:43:04;25.30;99.90
6256;DHT22;3161;48.794;9.784;2023-07-28T11:45:32;25.20;99.90
6256;DHT22;3161;48.794;9.784;2023-07-28T11:50:40;25.00;99.90
6256;DHT22;3161;48.794;9.784;2023-07-28T11:53:04;25.00;99.90
6256;DHT22;3161;48.794;9.784;2023-07-28T11:55:37;24.90;99.90
6256;DHT22;3161;48.794;9.784;2023-07-28T11:58:08;24.80;99.90
6256;DHT22;3161;48.794;9.784;2023-07-28T12:00:39;24.80;99.90
6256;DHT22;3161;48.794;9.784;2023-07-28T12:03:12;24.70;99.90
6256;DHT22;3161;48.794;9.784;2023-07-28T12:06:01;24.70;99.90
6256;DHT22;3161;48.794;9.784;2023-07-28T12:08:10;24.60;99.90
6256;DHT22;3161;48.794;9.784;2023-07-28T12:10:48;24.60;99.90
6256;DHT22;3161;48.794;9.784;2023-07-28T12:13:08;24.50;99.90
6256;DHT22;3161;48.794;9.784;2023-07-28T12:15:40;24.50;99.90
6256;DHT22;3161;48.794;9.784;2023-07-28T12:18:14;24.50;99.90
6256;DHT22;3161;48.794;9.784;2023-07-28T12:20:49;24.40;99.90
6256;DHT22;3161;48.794;9.784;2023-07-28T12:23:21;24.50;99.90
6256;DHT22;3161;48.794;9.784;2023-07-28T12:25:50;24.40;99.90
6256;DHT22;3161;48.794;9.784;2023-07-28T12:28:19;24.40;99.90
6256;DHT22;3161;48.794;9.784;2023-07-28T12:30:47;24.40;99.90
6256;DHT22;3161;48.794;9.784;2023-07-28T12:33:15;24.30;99.90
6256;DHT22;3161;48.794;9.784;2023-07-28T12:35:43;24.20;99.90
6256;DHT22;3161;48.794;9.784;2023-07-28T12:38:11;24.20;99.90
6256;DHT22;3161;48.794;9.784;2023-07-28T12:40:39;24.10;99.90
6256;DHT22;3161;48.794;9.784;2023-07-28T12:43:07;24.10;99.90
6256;DHT22;3161;48.794;9.784;2023-07-28T12:45:34;24.00;99.90
6256;DHT22;3161;48.794;9.784;2023-07-28T12:48:02;24.10;99.90
6256;DHT22;3161;48.794;9.784;2023-07-28T12:50:30;24.00;99.90
6256;DHT22;3161;48.794;9.784;2023-07-28T12:52:57;24.00;99.90
6256;DHT22;3161;48.794;9.784;2023-07-28T12:55:25;24.00;99.90
6256;DHT22;3161;48.794;9.784;2023-07-28T12:57:54;24.00;99.90
6256;DHT22;3161;48.794;9.784;2023-07-28T13:00:21;24.00;99.90
6256;DHT22;3161;48.794;9.784;2023-07-28T13:02:49;24.00;99.90
6256;DHT22;3161;48.794;9.784;2023-07-28T13:05:17;24.00;99.90
6256;DHT22;3161;48.794;9.784;2023-07-28T13:07:44;24.00;99.90
6256;DHT22;3161;48.794;9.784;2023-07-28T13:10:12;24.00;99.90
6256;DHT22;3161;48.794;9.784;2023-07-28T13:12:39;23.90;99.90
6256;DHT22;3161;48.794;9.784;2023-07-28T13:15:07;23.90;99.90
6256;DHT22;3161;48.794;9.784;2023-07-28T13:17:35;23.90;99.90
6256;DHT22;3161;48.794;9.784;2023-07-28T13:20:04;23.80;99.90
6256;DHT22;3161;48.794;9.784;2023-07-28T13:22:33;23.70;99.90
6256;DHT22;3161;48.794;9.784;2023-07-28T13:25:00;23.60;99.90
6256;DHT22;3161;48.794;9.784;2023-07-28T13:27:29;23.60;99.90
6256;DHT22;3161;48.794;9.784;2023-07-28T13:29:57;23.50;99.90
6256;DHT22;3161;48.794;9.784;2023-07-28T13:32:25;23.50;99.90
6256;DHT22;3161;48.794;9.784;2023-07-28T13:34:53;23.50;99.90
6256;DHT22;3161;48.794;9.784;2023-07-28T13:37:21;23.50;99.90
6256;DHT22;3161;48.794;9.784;2023-07-28T13:39:49;23.50;99.90
6256;DHT22;3161;48.794;9.784;2023-07-28T13:42:18;23.40;99.90
6256;DHT22;3161;48.794;9.784;2023-07-28T13:44:46;23.30;99.90
6256;DHT22;3161;48.794;9.784;2023-07-28T13:47:13;23.30;99.90
6256;DHT22;3161;48.794;9.784;2023-07-28T13:49:41;23.20;99.90
6256;DHT22;3161;48.794;9.784;2023-07-28T13:52:09;23.20;99.90
6256;DHT22;3161;48.794;9.784;2023-07-28T13:54:36;23.10;99.90
6256;DHT22;3161;48.794;9.784;2023-07-28T13:57:04;23.00;99.90
6256;DHT22;3161;48.794;9.784;2023-07-28T13:59:31;23.00;99.90
6256;DHT22;3161;48.794;9.784;2023-07-28T14:01:59;22.90;99.90
6256;DHT22;3161;48.794;9.784;2023-07-28T14:04:27;22.80;99.90
6256;DHT22;3161;48.794;9.784;2023-07-28T14:06:54;22.70;99.90
6256;DHT22;3161;48.794;9.784;2023-07-28T14:09:22;22.60;99.90
6256;DHT22;3161;48.794;9.784;2023-07-28T14:11:49;22.40;99.90
6256;DHT22;3161;48.794;9.784;2023-07-28T14:14:17;22.20;99.90
6256;DHT22;3161;48.794;9.784;2023-07-28T14:16:44;22.20;99.90
6256;DHT22;3161;48.794;9.784;2023-07-28T14:19:12;22.10;99.90
6256;DHT22;3161;48.794;9.784;2023-07-28T14:21:40;22.10;99.90
6256;DHT22;3161;48.794;9.784;2023-07-28T14:24:07;22.10;99.90
6256;DHT22;3161;48.794;9.784;2023-07-28T14:26:35;22.10;99.90
6256;DHT22;3161;48.794;9.784;2023-07-28T14:29:02;22.10;99.90
6256;DHT22;3161;48.794;9.784;2023-07-28T14:31:30;22.10;99.90
6256;DHT22;3161;48.794;9.784;2023-07-28T14:33:58;22.00;99.90
6256;DHT22;3161;48.794;9.784;2023-07-28T14:36:25;22.00;99.90
6256;DHT22;3161;48.794;9.784;2023-07-28T14:38:53;22.00;99.90
6256;DHT22;3161;48.794;9.784;2023-07-28T14:41:21;22.00;99.90
6256;DHT22;3161;48.794;9.784;2023-07-28T14:43:48;21.90;99.90
6256;DHT22;3161;48.794;9.784;2023-07-28T14:46:16;21.90;99.90
6256;DHT22;3161;48.794;9.784;2023-07-28T14:48:43;21.90;99.90
6256;DHT22;3161;48.794;9.784;2023-07-28T14:51:11;21.90;99.90
6256;DHT22;3161;48.794;9.784;2023-07-28T14:53:40;21.90;99.90
6256;DHT22;3161;48.794;9.784;2023-07-28T14:56:08;21.80;99.90
6256;DHT22;3161;48.794;9.784;2023-07-28T14:58:35;21.80;99.90
6256;DHT22;3161;48.794;9.784;2023-07-28T15:01:03;21.70;99.90
6256;DHT22;3161;48.794;9.784;2023-07-28T15:03:34;21.80;99.90
6256;DHT22;3161;48.794;9.784;2023-07-28T15:06:03;21.70;99.90
6256;DHT22;3161;48.794;9.784;2023-07-28T15:08:31;21.70;99.90
6256;DHT22;3161;48.794;9.784;2023-07-28T15:10:59;21.70;99.90
6256;DHT22;3161;48.794;9.784;2023-07-28T15:13:27;21.70;99.90
6256;DHT22;3161;48.794;9.784;2023-07-28T15:15:54;21.60;99.90
6256;DHT22;3161;48.794;9.784;2023-07-28T15:18:22;21.60;99.90
6256;DHT22;3161;48.794;9.784;2023-07-28T15:20:50;21.60;99.90
6256;DHT22;3161;48.794;9.784;2023-07-28T15:23:18;21.60;99.90
6256;DHT22;3161;48.794;9.784;2023-07-28T15:25:46;21.50;99.90
6256;DHT22;3161;48.794;9.784;2023-07-28T15:28:14;21.50;99.90
6256;DHT22;3161;48.794;9.784;2023-07-28T15:30:42;21.50;99.90
6256;DHT22;3161;48.794;9.784;2023-07-28T15:33:16;21.50;99.90
6256;DHT22;3161;48.794;9.784;2023-07-28T15:35:45;21.50;99.90
6256;DHT22;3161;48.794;9.784;2023-07-28T15:38:14;21.40;99.90
6256;DHT22;3161;48.794;9.784;2023-07-28T15:40:42;21.50;99.90
6256;DHT22;3161;48.794;9.784;2023-07-28T15:43:09;21.50;99.90
6256;DHT22;3161;48.794;9.784;2023-07-28T15:45:37;21.50;99.90
6256;DHT22;3161;48.794;9.784;2023-07-28T15:48:05;21.50;99.90
6256;DHT22;3161;48.794;9.784;2023-07-28T15:50:32;21.50;99.90
6256;DHT22;3161;48.794;9.784;2023-07-28T15:53:01;21.50;99.90
6256;DHT22;3161;48.794;9.784;2023-07-28T15:55:29;21.50;99.90
6256;DHT22;3161;48.794;9.784;2023-07-28T15:57:56;21.60;99.90
6256;DHT22;3161;48.794;9.784;2023-07-28T16:00:24;21.60;99.90
6256;DHT22;3161;48.794;9.784;2023-07-28T16:02:51;21.70;99.90
6256;DHT22;3161;48.794;9.784;2023-07-28T16:05:19;21.70;99.90
6256;DHT22;3161;48.794;9.784;2023-07-28T16:08:06;21.70;99.90
6256;DHT22;3161;48.794;9.784;2023-07-28T16:10:35;21.80;99.90
6256;DHT22;3161;48.794;9.784;2023-07-28T16:13:03;21.80;99.90
6256;DHT22;3161;48.794;9.784;2023-07-28T16:15:30;21.80;99.90
6256;DHT22;3161;48.794;9.784;2023-07-28T16:17:58;21.80;99.90